createdAt,value
2024-01-19T00:00:46.326Z,5.65
2024-01-19T00:04:20.480Z,4.00
2024-01-19T00:07:23.354Z,5.03
2024-01-19T00:10:24.896Z,7.75
2024-01-19T00:13:26.419Z,6.25
2024-01-19T00:16:27.916Z,6.55
2024-01-19T00:19:29.484Z,5.78
2024-01-19T00:22:32.404Z,6.38
2024-01-19T00:25:33.949Z,6.68
2024-01-19T00:28:35.512Z,6.60
2024-01-19T00:31:37.067Z,6.78
2024-01-19T00:34:38.664Z,5.13
2024-01-19T00:37:41.500Z,7.97
2024-01-19T00:40:44.489Z,5.32
2024-01-19T00:43:46.066Z,5.20
2024-01-19T00:46:47.604Z,6.95
2024-01-19T00:49:49.104Z,8.95
2024-01-19T00:52:51.968Z,6.28
2024-01-19T00:55:53.463Z,3.70
2024-01-19T00:58:55.020Z,5.03
2024-01-19T01:01:56.540Z,5.57
2024-01-19T01:04:58.366Z,5.22
2024-01-19T01:08:01.236Z,5.00
2024-01-19T01:11:02.973Z,5.38
2024-01-19T01:14:04.495Z,11.48
2024-01-19T01:17:06.152Z,3.67
2024-01-19T01:20:08.915Z,3.83
2024-01-19T01:23:11.772Z,5.50
2024-01-19T01:26:13.356Z,4.00
2024-01-19T01:29:14.923Z,6.72
2024-01-19T01:32:16.498Z,7.68
2024-01-19T01:35:18.145Z,4.60
2024-01-19T01:38:21.034Z,4.28
2024-01-19T01:41:22.663Z,6.85
2024-01-19T01:44:24.224Z,4.53
2024-01-19T01:47:25.925Z,4.97
2024-01-19T01:50:27.607Z,11.75
2024-01-19T01:53:30.542Z,7.30
2024-01-19T01:56:32.146Z,5.55
2024-01-19T01:59:33.846Z,7.32
2024-01-19T02:02:40.394Z,6.22
2024-01-19T02:05:42.257Z,3.83
2024-01-19T02:08:45.399Z,4.03
2024-01-19T02:11:47.070Z,7.85
2024-01-19T02:14:48.824Z,7.05
2024-01-19T02:17:51.657Z,4.40
2024-01-19T02:20:54.232Z,4.10
2024-01-19T02:24:05.896Z,8.73
2024-01-19T02:27:08.953Z,7.63
2024-01-19T02:30:11.764Z,7.10
2024-01-19T02:33:13.341Z,3.80
2024-01-19T02:36:14.932Z,3.67
2024-01-19T02:39:16.529Z,5.53
2024-01-19T02:42:19.345Z,6.25
2024-01-19T02:45:20.888Z,5.20
2024-01-19T02:48:22.748Z,6.22
2024-01-19T02:51:56.376Z,5.40
2024-01-19T02:54:57.882Z,3.60
2024-01-19T02:58:00.733Z,7.43
2024-01-19T03:01:02.606Z,4.18
2024-01-19T03:04:04.380Z,3.15
2024-01-19T03:07:06.086Z,10.40
2024-01-19T03:10:08.980Z,4.47
2024-01-19T03:13:11.880Z,5.47
2024-01-19T03:16:13.427Z,6.88
2024-01-19T03:19:15.189Z,3.10
2024-01-19T03:22:16.896Z,3.83
2024-01-19T03:25:18.711Z,5.90
2024-01-19T03:28:21.568Z,6.18
2024-01-19T03:31:23.131Z,8.00
2024-01-19T03:34:24.716Z,6.70
2024-01-19T03:37:26.559Z,5.65
2024-01-19T03:40:28.097Z,7.95
2024-01-19T03:43:30.932Z,4.53
2024-01-19T03:46:32.483Z,10.05
2024-01-19T03:49:34.061Z,5.97
2024-01-19T03:52:36.841Z,3.65
2024-01-19T03:55:38.795Z,4.32
2024-01-19T03:58:41.794Z,9.70
2024-01-19T04:01:43.599Z,6.68
2024-01-19T04:04:45.249Z,5.03
2024-01-19T04:07:46.920Z,7.40
2024-01-19T04:10:48.485Z,4.47
2024-01-19T04:13:51.733Z,9.98
2024-01-19T04:16:53.376Z,6.13
2024-01-19T04:19:54.961Z,9.18
2024-01-19T04:22:56.549Z,3.95
2024-01-19T04:25:58.077Z,3.85
2024-01-19T04:29:00.969Z,3.72
2024-01-19T04:32:02.537Z,5.28
2024-01-19T04:35:09.252Z,4.70
2024-01-19T04:38:10.804Z,4.82
2024-01-19T04:41:12.321Z,6.85
2024-01-19T04:44:15.196Z,12.27
2024-01-19T04:47:16.720Z,6.38
2024-01-19T04:50:18.201Z,6.63
2024-01-19T04:53:23.105Z,4.60
2024-01-19T04:56:24.668Z,3.95
2024-01-19T04:59:27.554Z,3.85
2024-01-19T05:02:29.099Z,4.65
2024-01-19T05:05:33.640Z,3.92
2024-01-19T05:09:07.754Z,6.25
2024-01-19T05:12:09.397Z,13.30
2024-01-19T05:15:12.885Z,4.80
2024-01-19T05:18:14.480Z,7.50
2024-01-19T05:21:16.061Z,7.18
2024-01-19T05:24:18.146Z,5.57
2024-01-19T05:27:19.708Z,6.88
2024-01-19T05:30:23.662Z,8.60
2024-01-19T05:33:25.367Z,4.65
2024-01-19T05:36:26.913Z,6.25
2024-01-19T05:39:28.452Z,5.43
2024-01-19T05:42:30.033Z,12.35
2024-01-19T05:45:32.868Z,5.45
2024-01-19T05:48:34.500Z,6.32
2024-01-19T05:51:36.147Z,5.05
2024-01-19T05:54:37.690Z,5.65
2024-01-19T05:57:40.797Z,7.40
2024-01-19T06:00:43.701Z,7.55
2024-01-19T06:03:45.345Z,7.05
2024-01-19T06:06:46.979Z,6.07
2024-01-19T06:09:48.487Z,7.15
2024-01-19T06:12:50.193Z,6.40
2024-01-19T06:15:53.277Z,9.23
2024-01-19T06:18:54.983Z,7.70
2024-01-19T06:21:59.185Z,7.20
2024-01-19T06:25:00.888Z,7.63
2024-01-19T06:28:35.000Z,7.43
2024-01-19T06:31:44.450Z,6.82
2024-01-19T06:34:46.034Z,7.97
2024-01-19T06:37:47.750Z,9.82
2024-01-19T06:40:49.391Z,10.00
2024-01-19T06:43:50.862Z,7.55
2024-01-19T06:50:23.142Z,9.95
2024-01-19T06:53:24.725Z,12.00
2024-01-19T06:56:26.340Z,8.48
2024-01-19T06:59:27.924Z,10.57
2024-01-19T07:06:00.169Z,8.43
2024-01-19T07:09:01.991Z,9.38
2024-01-19T07:12:35.691Z,10.43
2024-01-19T07:15:37.236Z,8.48
2024-01-19T07:18:40.265Z,8.45
2024-01-19T07:25:44.087Z,11.40
2024-01-19T07:28:45.673Z,10.50
2024-01-19T07:31:47.196Z,11.88
2024-01-19T07:35:22.277Z,8.75
2024-01-19T07:38:24.434Z,11.23
2024-01-19T07:41:26.175Z,10.32
2024-01-19T07:44:59.851Z,12.82
2024-01-19T07:48:34.014Z,12.68
2024-01-19T07:51:36.929Z,16.00
2024-01-19T07:54:38.432Z,16.38
2024-01-19T07:57:40.135Z,14.82
2024-01-19T08:04:10.699Z,14.52
2024-01-19T08:07:13.732Z,11.07
2024-01-19T08:13:44.721Z,10.52
2024-01-19T08:16:46.256Z,10.38
2024-01-19T08:19:47.870Z,11.15
2024-01-19T08:22:50.848Z,11.85
2024-01-19T08:29:21.697Z,13.65
2024-01-19T08:35:52.725Z,11.77
2024-01-19T08:39:28.109Z,11.07
2024-01-19T08:42:29.616Z,14.40
2024-01-19T08:45:32.644Z,14.18
2024-01-19T08:48:34.543Z,15.32
2024-01-19T08:55:38.710Z,11.32
2024-01-19T08:58:40.220Z,10.63
2024-01-19T09:01:41.797Z,11.82
2024-01-19T09:08:12.320Z,12.70
2024-01-19T09:18:18.606Z,11.48
2024-01-19T09:21:20.169Z,15.95
2024-01-19T09:24:21.710Z,11.05
2024-01-19T09:27:24.562Z,9.68
2024-01-19T09:30:26.112Z,11.80
2024-01-19T09:36:57.035Z,12.43
2024-01-19T09:40:02.092Z,9.93
2024-01-19T09:43:41.543Z,18.52
2024-01-19T09:46:57.992Z,13.95
2024-01-19T09:50:03.601Z,10.40
2024-01-19T09:53:06.301Z,11.32
2024-01-19T09:56:07.864Z,10.73
2024-01-19T09:59:10.889Z,12.88
2024-01-19T10:02:21.413Z,13.45
2024-01-19T10:05:23.759Z,12.10
2024-01-19T10:08:26.222Z,12.20
2024-01-19T10:14:30.754Z,13.73
2024-01-19T10:17:33.178Z,9.18
2024-01-19T10:21:07.274Z,11.25
2024-01-19T10:28:10.465Z,12.18
2024-01-19T10:31:20.726Z,11.90
2024-01-19T10:34:23.735Z,13.38
2024-01-19T10:37:25.378Z,14.18
2024-01-19T10:40:27.000Z,18.27
2024-01-19T10:44:10.395Z,13.65
2024-01-19T10:47:14.084Z,14.65
2024-01-19T10:50:16.750Z,15.43
2024-01-19T10:53:18.368Z,14.95
2024-01-19T10:56:20.776Z,17.17
2024-01-19T10:59:26.722Z,12.55
2024-01-19T11:02:31.532Z,13.43
2024-01-19T11:05:34.259Z,13.30
2024-01-19T11:08:37.028Z,12.23
2024-01-19T11:11:44.141Z,14.98
2024-01-19T11:14:50.718Z,11.43
2024-01-19T11:17:54.644Z,13.50
2024-01-19T11:20:56.468Z,12.90
2024-01-19T11:23:58.224Z,14.85
2024-01-19T11:27:08.191Z,9.80
2024-01-19T11:30:25.756Z,11.43
2024-01-19T11:34:02.209Z,10.95
2024-01-19T11:41:44.708Z,12.38
2024-01-19T11:48:39.140Z,11.23
2024-01-19T11:51:48.772Z,12.32
2024-01-19T11:54:50.440Z,10.02
2024-01-19T11:57:52.112Z,10.60
2024-01-19T12:00:54.075Z,13.68
2024-01-19T12:07:26.896Z,10.93
2024-01-19T12:10:28.920Z,12.52
2024-01-19T12:13:31.796Z,8.93
2024-01-19T12:16:33.740Z,14.05
2024-01-19T12:19:35.361Z,12.02
2024-01-19T12:22:38.554Z,15.50
2024-01-19T12:25:40.279Z,13.27
2024-01-19T12:28:41.977Z,11.45
2024-01-19T12:31:43.556Z,11.88
2024-01-19T12:34:58.678Z,14.32
2024-01-19T12:38:02.171Z,12.60
2024-01-19T12:41:04.345Z,10.20
2024-01-19T12:47:07.629Z,11.32
2024-01-19T12:50:41.331Z,13.57
2024-01-19T12:54:16.636Z,11.77
2024-01-19T12:57:50.153Z,13.73
2024-01-19T13:00:51.776Z,13.80
2024-01-19T13:03:57.240Z,13.55
2024-01-19T13:06:58.814Z,13.60
2024-01-19T13:10:34.465Z,16.20
2024-01-19T13:13:38.727Z,14.88
2024-01-19T13:16:51.480Z,13.32
2024-01-19T13:19:53.057Z,14.10
2024-01-19T13:22:54.735Z,14.82
2024-01-19T13:29:27.071Z,14.00
2024-01-19T13:32:28.850Z,22.65
2024-01-19T13:35:30.579Z,12.65
2024-01-19T13:38:32.118Z,14.73
2024-01-19T13:41:35.379Z,16.98
2024-01-19T13:45:09.478Z,11.13
2024-01-19T13:51:40.286Z,12.75
2024-01-19T13:54:48.212Z,13.00
2024-01-19T13:57:51.103Z,12.38
2024-01-19T14:00:52.878Z,12.77
2024-01-19T14:07:24.021Z,12.05
2024-01-19T14:10:58.680Z,12.38
2024-01-19T14:14:02.115Z,12.90
2024-01-19T14:17:36.529Z,12.55
2024-01-19T14:21:09.977Z,17.35
2024-01-19T14:24:43.989Z,14.35
2024-01-19T14:27:45.578Z,11.38
2024-01-19T14:30:48.752Z,12.85
2024-01-19T14:33:50.404Z,13.18
2024-01-19T14:36:52.277Z,12.05
2024-01-19T14:39:53.948Z,13.70
2024-01-19T14:42:59.925Z,12.35
2024-01-19T14:46:04.345Z,13.90
2024-01-19T14:49:06.250Z,14.40
2024-01-19T14:52:08.208Z,15.85
2024-01-19T15:01:42.525Z,12.27
2024-01-19T15:04:44.114Z,14.10
2024-01-19T15:07:45.764Z,11.93
2024-01-19T15:10:47.542Z,15.07
2024-01-19T15:13:49.406Z,15.05
2024-01-19T15:16:58.099Z,14.52
2024-01-19T15:19:59.735Z,20.05
2024-01-19T15:23:02.863Z,14.98
2024-01-19T15:26:04.838Z,15.25
2024-01-19T15:29:06.515Z,16.80
2024-01-19T15:32:09.791Z,13.60
2024-01-19T15:35:11.473Z,14.73
2024-01-19T15:38:13.848Z,13.75
2024-01-19T15:41:47.439Z,18.13
2024-01-19T15:44:49.033Z,23.77
2024-01-19T15:47:55.617Z,18.55
2024-01-19T15:50:58.421Z,17.20
2024-01-19T15:54:06.629Z,23.27
2024-01-19T15:57:08.633Z,19.95
2024-01-19T16:00:11.782Z,23.10
2024-01-19T16:03:14.956Z,27.35
2024-01-19T16:06:16.789Z,25.92
2024-01-19T16:12:47.653Z,27.83
2024-01-19T16:15:49.241Z,24.13
2024-01-19T16:18:52.168Z,23.77
2024-01-19T16:21:53.754Z,34.25
2024-01-19T16:24:55.353Z,27.45
2024-01-19T16:27:56.888Z,25.70
2024-01-19T16:30:58.435Z,29.33
2024-01-19T16:34:01.325Z,25.50
2024-01-19T16:37:03.451Z,31.13
2024-01-19T16:43:08.662Z,28.75
2024-01-19T16:46:10.176Z,37.53
2024-01-19T16:49:13.599Z,29.15
2024-01-19T16:52:15.647Z,32.17
2024-01-19T16:55:17.468Z,37.55
2024-01-19T16:58:19.244Z,32.60
2024-01-19T17:01:21.064Z,36.97
2024-01-19T17:04:23.987Z,34.00
2024-01-19T17:07:25.521Z,32.72
2024-01-19T17:10:27.174Z,28.70
2024-01-19T17:13:28.771Z,30.40
2024-01-19T17:16:59.294Z,31.13
2024-01-19T17:23:31.158Z,32.80
2024-01-19T17:26:33.059Z,31.25
2024-01-19T17:29:34.712Z,32.53
2024-01-19T17:32:40.254Z,40.03
2024-01-19T17:35:43.245Z,35.30
2024-01-19T17:38:45.005Z,33.42
2024-01-19T17:41:46.543Z,41.78
2024-01-19T17:44:48.521Z,31.42
2024-01-19T17:48:22.671Z,33.53
2024-01-19T17:51:25.811Z,30.90
2024-01-19T17:54:27.368Z,33.25
2024-01-19T17:58:01.164Z,32.80
2024-01-19T18:01:02.744Z,33.67
2024-01-19T18:04:04.493Z,30.50
2024-01-19T18:07:07.417Z,26.38
2024-01-19T18:10:10.010Z,39.00
2024-01-19T18:13:11.771Z,29.23
2024-01-19T18:16:13.591Z,35.10
2024-01-19T18:19:15.513Z,27.73
2024-01-19T18:22:18.585Z,27.02
2024-01-19T18:25:20.418Z,29.13
2024-01-19T18:31:28.782Z,29.55
2024-01-19T18:34:30.546Z,30.48
2024-01-19T18:37:33.666Z,30.23
2024-01-19T18:40:35.430Z,30.63
2024-01-19T18:43:36.980Z,30.80
2024-01-19T18:46:44.678Z,25.15
2024-01-19T18:49:46.372Z,28.00
2024-01-19T18:52:49.380Z,30.30
2024-01-19T18:55:52.006Z,25.75
2024-01-19T18:58:54.168Z,29.88
2024-01-19T19:01:56.130Z,27.88
2024-01-19T19:04:57.804Z,29.33
2024-01-19T19:08:04.683Z,27.00
2024-01-19T19:11:06.361Z,27.10
2024-01-19T19:14:08.052Z,25.48
2024-01-19T19:20:38.912Z,36.20
2024-01-19T19:23:41.923Z,23.85
2024-01-19T19:26:44.743Z,23.27
2024-01-19T19:29:46.304Z,29.92
2024-01-19T19:32:54.881Z,26.23
2024-01-19T19:35:56.509Z,32.55
2024-01-19T19:38:59.479Z,31.17
2024-01-19T19:42:00.976Z,33.50
2024-01-19T19:45:02.858Z,28.52
2024-01-19T19:48:04.960Z,28.25
2024-01-19T19:54:37.319Z,29.17
2024-01-19T19:57:38.915Z,29.42
2024-01-19T20:01:12.894Z,29.25
2024-01-19T20:04:14.838Z,32.17
2024-01-19T20:07:16.404Z,36.00
2024-01-19T20:10:19.644Z,29.20
2024-01-19T20:13:21.660Z,30.88
2024-01-19T20:16:23.455Z,28.42
2024-01-19T20:19:28.463Z,30.23
2024-01-19T20:22:30.309Z,32.28
2024-01-19T20:26:05.913Z,30.30
2024-01-19T20:29:39.454Z,32.05
2024-01-19T20:33:13.697Z,28.30
2024-01-19T20:36:15.571Z,29.85
2024-01-19T20:39:17.461Z,32.63
2024-01-19T20:42:20.555Z,25.50
2024-01-19T20:45:54.089Z,34.55
2024-01-19T20:49:28.404Z,27.38
2024-01-19T20:52:29.938Z,33.88
2024-01-19T20:55:31.537Z,28.48
2024-01-19T21:02:35.880Z,30.27
2024-01-19T21:06:10.446Z,36.58
2024-01-19T21:09:12.101Z,30.95
2024-01-19T21:12:14.489Z,30.58
2024-01-19T21:15:21.445Z,29.92
2024-01-19T21:18:59.561Z,30.42
2024-01-19T21:22:04.208Z,29.98
2024-01-19T21:25:41.617Z,32.92
2024-01-19T21:28:43.341Z,32.53
2024-01-19T21:31:46.376Z,41.83
2024-01-19T21:38:49.680Z,35.67
2024-01-19T21:41:51.682Z,41.38
2024-01-19T21:48:23.692Z,29.23
2024-01-19T21:55:28.033Z,30.67
2024-01-19T21:58:29.718Z,40.17
2024-01-19T22:01:31.310Z,36.92
2024-01-19T22:08:04.681Z,32.97
2024-01-19T22:11:06.453Z,31.95
2024-01-19T22:14:08.182Z,34.80
2024-01-19T22:17:10.988Z,33.28
2024-01-19T22:23:43.597Z,36.65
2024-01-19T22:30:47.693Z,39.80
2024-01-19T22:33:49.740Z,38.13
2024-01-19T22:36:52.823Z,39.22
2024-01-19T22:39:54.466Z,38.58
2024-01-19T22:42:56.245Z,40.85
2024-01-19T22:45:57.984Z,41.13
2024-01-19T22:48:59.965Z,35.17
2024-01-19T22:52:03.309Z,44.08
2024-01-19T22:55:06.037Z,36.22
2024-01-19T22:58:41.895Z,43.75
2024-01-19T23:01:45.186Z,33.25
2024-01-19T23:04:46.855Z,33.60
2024-01-19T23:08:21.942Z,36.47
2024-01-19T23:11:57.923Z,35.00
2024-01-19T23:15:02.378Z,37.30
2024-01-19T23:18:04.577Z,34.13
2024-01-19T23:21:06.334Z,40.35
2024-01-19T23:24:12.465Z,36.42
2024-01-19T23:27:14.249Z,36.58
2024-01-19T23:30:16.064Z,37.08
2024-01-19T23:33:19.003Z,39.65
2024-01-19T23:36:20.636Z,35.05
2024-01-19T23:39:55.659Z,38.58
2024-01-19T23:42:58.826Z,38.20
2024-01-19T23:46:02.287Z,41.42
2024-01-19T23:49:03.916Z,43.58
2024-01-19T23:52:06.331Z,33.78
2024-01-19T23:55:09.331Z,39.75
2024-01-19T23:58:11.073Z,37.60
